sensor_id;sensor_type;location;lat;lon;timestamp;temperature;humidity
19174;DHT22;9719;49.322;8.536;2023-04-24T00:02:08;14.00;99.90
19174;DHT22;9719;49.322;8.536;2023-04-24T00:07:12;14.00;99.90
19174;DHT22;9719;49.322;8.536;2023-04-24T00:12:14;13.90;99.90
19174;DHT22;9719;49.322;8.536;2023-04-24T00:17:16;13.90;99.90
19174;DHT22;9719;49.322;8.536;2023-04-24T00:22:21;13.80;99.90
19174;DHT22;9719;49.322;8.536;2023-04-24T00:27:23;13.90;99.90
19174;DHT22;9719;49.322;8.536;2023-04-24T00:32:25;13.80;99.90
19174;DHT22;9719;49.322;8.536;2023-04-24T00:37:28;13.90;99.90
19174;DHT22;9719;49.322;8.536;2023-04-24T00:42:30;13.90;99.90
19174;DHT22;9719;49.322;8.536;2023-04-24T00:47:32;13.80;99.90
19174;DHT22;9719;49.322;8.536;2023-04-24T00:52:35;13.80;99.90
19174;DHT22;9719;49.322;8.536;2023-04-24T00:57:37;13.70;99.90
19174;DHT22;9719;49.322;8.536;2023-04-24T01:02:40;13.70;99.90
19174;DHT22;9719;49.322;8.536;2023-04-24T01:07:46;13.70;99.90
19174;DHT22;9719;49.322;8.536;2023-04-24T01:12:49;13.60;99.90
19174;DHT22;9719;49.322;8.536;2023-04-24T01:17:51;13.60;99.90
19174;DHT22;9719;49.322;8.536;2023-04-24T01:22:55;13.60;99.90
19174;DHT22;9719;49.322;8.536;2023-04-24T01:27:58;13.60;99.90
19174;DHT22;9719;49.322;8.536;2023-04-24T01:32:59;13.60;99.90
19174;DHT22;9719;49.322;8.536;2023-04-24T01:38:03;13.60;99.90
19174;DHT22;9719;49.322;8.536;2023-04-24T01:43:04;13.60;99.90
19174;DHT22;9719;49.322;8.536;2023-04-24T01:48:06;13.60;99.90
19174;DHT22;9719;49.322;8.536;2023-04-24T01:53:09;13.50;99.90
19174;DHT22;9719;49.322;8.536;2023-04-24T01:58:11;13.50;99.90
19174;DHT22;9719;49.322;8.536;2023-04-24T02:03:13;13.50;99.90
19174;DHT22;9719;49.322;8.536;2023-04-24T02:08:16;13.50;99.90
19174;DHT22;9719;49.322;8.536;2023-04-24T02:13:18;13.50;99.90
19174;DHT22;9719;49.322;8.536;2023-04-24T02:18:19;13.40;99.90
19174;DHT22;9719;49.322;8.536;2023-04-24T02:23:24;13.40;99.90
19174;DHT22;9719;49.322;8.536;2023-04-24T02:28:27;13.40;99.90
19174;DHT22;9719;49.322;8.536;2023-04-24T02:33:29;13.40;99.90
19174;DHT22;9719;49.322;8.536;2023-04-24T02:38:32;13.40;99.90
19174;DHT22;9719;49.322;8.536;2023-04-24T02:43:33;13.50;99.90
19174;DHT22;9719;49.322;8.536;2023-04-24T02:48:35;13.50;99.90
19174;DHT22;9719;49.322;8.536;2023-04-24T02:53:38;13.40;99.90
19174;DHT22;9719;49.322;8.536;2023-04-24T02:58:40;13.50;99.90
19174;DHT22;9719;49.322;8.536;2023-04-24T03:03:42;13.50;99.90
19174;DHT22;9719;49.322;8.536;2023-04-24T03:08:45;13.50;99.90
19174;DHT22;9719;49.322;8.536;2023-04-24T03:13:47;13.50;99.90
19174;DHT22;9719;49.322;8.536;2023-04-24T03:18:48;13.20;99.90
19174;DHT22;9719;49.322;8.536;2023-04-24T03:23:51;12.90;99.90
19174;DHT22;9719;49.322;8.536;2023-04-24T03:28:53;12.80;99.90
19174;DHT22;9719;49.322;8.536;2023-04-24T03:33:55;12.80;99.90
19174;DHT22;9719;49.322;8.536;2023-04-24T03:38:58;12.80;99.90
19174;DHT22;9719;49.322;8.536;2023-04-24T03:43:59;12.70;99.90
19174;DHT22;9719;49.322;8.536;2023-04-24T03:49:01;12.70;99.90
19174;DHT22;9719;49.322;8.536;2023-04-24T03:54:04;12.60;99.90
19174;DHT22;9719;49.322;8.536;2023-04-24T03:59:06;12.60;99.90
19174;DHT22;9719;49.322;8.536;2023-04-24T04:04:08;12.50;99.90
19174;DHT22;9719;49.322;8.536;2023-04-24T04:09:11;12.30;99.90
19174;DHT22;9719;49.322;8.536;2023-04-24T04:14:12;12.30;99.90
19174;DHT22;9719;49.322;8.536;2023-04-24T04:19:14;12.20;99.90
19174;DHT22;9719;49.322;8.536;2023-04-24T04:24:17;12.10;99.90
19174;DHT22;9719;49.322;8.536;2023-04-24T04:29:19;12.10;99.90
19174;DHT22;9719;49.322;8.536;2023-04-24T04:34:20;12.00;99.90
19174;DHT22;9719;49.322;8.536;2023-04-24T04:39:24;12.00;99.90
19174;DHT22;9719;49.322;8.536;2023-04-24T04:44:26;12.00;99.90
19174;DHT22;9719;49.322;8.536;2023-04-24T04:49:29;12.00;99.90
19174;DHT22;9719;49.322;8.536;2023-04-24T04:54:32;12.00;99.90
19174;DHT22;9719;49.322;8.536;2023-04-24T04:59:34;12.10;99.90
19174;DHT22;9719;49.322;8.536;2023-04-24T05:04:36;12.20;99.90
19174;DHT22;9719;49.322;8.536;2023-04-24T05:09:39;12.30;99.90
19174;DHT22;9719;49.322;8.536;2023-04-24T05:14:41;12.40;99.90
19174;DHT22;9719;49.322;8.536;2023-04-24T05:19:43;12.50;99.90
19174;DHT22;9719;49.322;8.536;2023-04-24T05:24:46;12.60;99.90
19174;DHT22;9719;49.322;8.536;2023-04-24T05:29:48;12.60;99.90
19174;DHT22;9719;49.322;8.536;2023-04-24T05:34:50;12.70;99.90
19174;DHT22;9719;49.322;8.536;2023-04-24T05:39:53;12.80;99.90
19174;DHT22;9719;49.322;8.536;2023-04-24T05:44:54;12.90;99.90
19174;DHT22;9719;49.322;8.536;2023-04-24T05:49:56;13.00;99.90
19174;DHT22;9719;49.322;8.536;2023-04-24T05:54:59;13.10;99.90
19174;DHT22;9719;49.322;8.536;2023-04-24T06:00:01;13.20;99.90
19174;DHT22;9719;49.322;8.536;2023-04-24T06:05:03;13.40;99.90
19174;DHT22;9719;49.322;8.536;2023-04-24T06:10:07;13.50;99.90
19174;DHT22;9719;49.322;8.536;2023-04-24T06:15:09;13.60;99.90
19174;DHT22;9719;49.322;8.536;2023-04-24T06:20:14;13.60;99.90
19174;DHT22;9719;49.322;8.536;2023-04-24T06:25:17;13.60;99.90
19174;DHT22;9719;49.322;8.536;2023-04-24T06:30:19;13.60;99.90
19174;DHT22;9719;49.322;8.536;2023-04-24T06:35:21;13.70;99.90
19174;DHT22;9719;49.322;8.536;2023-04-24T06:40:24;13.80;99.90
19174;DHT22;9719;49.322;8.536;2023-04-24T06:45:26;13.80;99.90
19174;DHT22;9719;49.322;8.536;2023-04-24T06:50:28;14.00;99.90
19174;DHT22;9719;49.322;8.536;2023-04-24T06:55:31;14.20;99.90
19174;DHT22;9719;49.322;8.536;2023-04-24T07:00:32;14.10;99.90
19174;DHT22;9719;49.322;8.536;2023-04-24T07:05:34;14.00;99.90
19174;DHT22;9719;49.322;8.536;2023-04-24T07:10:39;13.80;99.90
19174;DHT22;9719;49.322;8.536;2023-04-24T07:15:41;13.40;99.90
19174;DHT22;9719;49.322;8.536;2023-04-24T07:20:43;13.10;99.90
19174;DHT22;9719;49.322;8.536;2023-04-24T07:25:46;13.10;99.90
19174;DHT22;9719;49.322;8.536;2023-04-24T07:30:48;13.10;99.90
19174;DHT22;9719;49.322;8.536;2023-04-24T07:35:49;13.00;99.90
19174;DHT22;9719;49.322;8.536;2023-04-24T07:40:53;13.10;99.90
19174;DHT22;9719;49.322;8.536;2023-04-24T07:45:55;13.10;99.90
19174;DHT22;9719;49.322;8.536;2023-04-24T07:50:57;13.00;99.90
19174;DHT22;9719;49.322;8.536;2023-04-24T07:56:00;13.00;99.90
19174;DHT22;9719;49.322;8.536;2023-04-24T08:01:02;13.20;99.90
19174;DHT22;9719;49.322;8.536;2023-04-24T08:06:04;13.40;99.90
19174;DHT22;9719;49.322;8.536;2023-04-24T08:11:07;13.70;99.90
19174;DHT22;9719;49.322;8.536;2023-04-24T08:16:09;14.00;99.90
19174;DHT22;9719;49.322;8.536;2023-04-24T08:21:10;14.30;99.90
19174;DHT22;9719;49.322;8.536;2023-04-24T08:26:18;14.70;99.90
19174;DHT22;9719;49.322;8.536;2023-04-24T08:31:20;14.80;99.90
19174;DHT22;9719;49.322;8.536;2023-04-24T08:36:23;14.60;99.90
19174;DHT22;9719;49.322;8.536;2023-04-24T08:41:27;14.60;99.90
19174;DHT22;9719;49.322;8.536;2023-04-24T08:46:29;14.60;99.90
19174;DHT22;9719;49.322;8.536;2023-04-24T08:51:31;14.70;99.90
19174;DHT22;9719;49.322;8.536;2023-04-24T08:56:37;14.70;99.90
19174;DHT22;9719;49.322;8.536;2023-04-24T09:01:40;14.60;99.90
19174;DHT22;9719;49.322;8.536;2023-04-24T09:06:42;14.90;99.90
19174;DHT22;9719;49.322;8.536;2023-04-24T09:11:46;14.90;99.90
19174;DHT22;9719;49.322;8.536;2023-04-24T09:16:48;15.10;99.90
19174;DHT22;9719;49.322;8.536;2023-04-24T09:21:52;15.30;99.70
19174;DHT22;9719;49.322;8.536;2023-04-24T09:26:58;15.50;98.20
19174;DHT22;9719;49.322;8.536;2023-04-24T09:32:18;15.40;97.60
19174;DHT22;9719;49.322;8.536;2023-04-24T09:37:28;15.30;97.90
19174;DHT22;9719;49.322;8.536;2023-04-24T09:42:31;15.10;96.60
19174;DHT22;9719;49.322;8.536;2023-04-24T09:47:36;15.10;98.40
19174;DHT22;9719;49.322;8.536;2023-04-24T09:52:40;15.70;97.80
19174;DHT22;9719;49.322;8.536;2023-04-24T09:57:52;16.00;96.10
19174;DHT22;9719;49.322;8.536;2023-04-24T10:02:56;16.20;94.50
19174;DHT22;9719;49.322;8.536;2023-04-24T10:08:00;16.30;95.50
19174;DHT22;9719;49.322;8.536;2023-04-24T10:13:04;16.10;94.30
19174;DHT22;9719;49.322;8.536;2023-04-24T10:18:07;15.60;92.90
19174;DHT22;9719;49.322;8.536;2023-04-24T10:23:10;15.10;93.20
19174;DHT22;9719;49.322;8.536;2023-04-24T10:28:14;14.90;94.50
19174;DHT22;9719;49.322;8.536;2023-04-24T10:33:17;14.80;95.20
19174;DHT22;9719;49.322;8.536;2023-04-24T10:38:24;14.60;95.60
19174;DHT22;9719;49.322;8.536;2023-04-24T10:43:28;14.50;96.90
19174;DHT22;9719;49.322;8.536;2023-04-24T10:48:31;14.80;97.80
19174;DHT22;9719;49.322;8.536;2023-04-24T10:53:35;15.20;98.20
19174;DHT22;9719;49.322;8.536;2023-04-24T10:58:40;15.70;97.70
19174;DHT22;9719;49.322;8.536;2023-04-24T11:03:51;15.90;96.80
19174;DHT22;9719;49.322;8.536;2023-04-24T11:09:01;15.90;94.60
19174;DHT22;9719;49.322;8.536;2023-04-24T11:14:09;16.10;95.70
19174;DHT22;9719;49.322;8.536;2023-04-24T11:19:20;16.10;94.60
19174;DHT22;9719;49.322;8.536;2023-04-24T11:24:27;16.20;94.30
19174;DHT22;9719;49.322;8.536;2023-04-24T11:29:41;15.90;93.70
19174;DHT22;9719;49.322;8.536;2023-04-24T11:34:45;15.50;95.00
19174;DHT22;9719;49.322;8.536;2023-04-24T11:39:50;15.70;94.10
19174;DHT22;9719;49.322;8.536;2023-04-24T11:44:54;16.40;94.00
19174;DHT22;9719;49.322;8.536;2023-04-24T11:49:58;16.30;92.50
19174;DHT22;9719;49.322;8.536;2023-04-24T11:55:00;16.40;91.20
19174;DHT22;9719;49.322;8.536;2023-04-24T12:00:05;16.10;90.80
19174;DHT22;9719;49.322;8.536;2023-04-24T12:05:07;16.30;89.70
19174;DHT22;9719;49.322;8.536;2023-04-24T12:10:09;16.30;90.30
19174;DHT22;9719;49.322;8.536;2023-04-24T12:15:12;16.30;90.20
19174;DHT22;9719;49.322;8.536;2023-04-24T12:20:14;16.30;87.40
19174;DHT22;9719;49.322;8.536;2023-04-24T12:25:17;16.50;87.40
19174;DHT22;9719;49.322;8.536;2023-04-24T12:30:20;16.50;87.10
19174;DHT22;9719;49.322;8.536;2023-04-24T12:35:24;16.70;84.80
19174;DHT22;9719;49.322;8.536;2023-04-24T12:40:26;16.90;84.90
19174;DHT22;9719;49.322;8.536;2023-04-24T12:45:30;17.00;83.10
19174;DHT22;9719;49.322;8.536;2023-04-24T12:50:32;17.00;83.10
19174;DHT22;9719;49.322;8.536;2023-04-24T12:55:33;16.90;82.90
19174;DHT22;9719;49.322;8.536;2023-04-24T13:00:36;17.00;83.20
19174;DHT22;9719;49.322;8.536;2023-04-24T13:05:39;17.30;83.30
19174;DHT22;9719;49.322;8.536;2023-04-24T13:10:41;17.40;83.60
19174;DHT22;9719;49.322;8.536;2023-04-24T13:15:44;17.30;80.70
19174;DHT22;9719;49.322;8.536;2023-04-24T13:20:46;17.30;80.40
19174;DHT22;9719;49.322;8.536;2023-04-24T13:25:48;17.20;78.70
19174;DHT22;9719;49.322;8.536;2023-04-24T13:30:51;17.30;80.50
19174;DHT22;9719;49.322;8.536;2023-04-24T13:35:53;17.50;78.80
19174;DHT22;9719;49.322;8.536;2023-04-24T13:40:54;17.30;78.60
19174;DHT22;9719;49.322;8.536;2023-04-24T13:45:57;17.10;77.90
19174;DHT22;9719;49.322;8.536;2023-04-24T13:51:02;17.00;79.10
19174;DHT22;9719;49.322;8.536;2023-04-24T13:56:04;16.90;78.80
19174;DHT22;9719;49.322;8.536;2023-04-24T14:01:07;16.70;78.70
19174;DHT22;9719;49.322;8.536;2023-04-24T14:06:09;16.60;79.00
19174;DHT22;9719;49.322;8.536;2023-04-24T14:11:10;16.50;79.50
19174;DHT22;9719;49.322;8.536;2023-04-24T14:16:14;16.40;78.90
19174;DHT22;9719;49.322;8.536;2023-04-24T14:21:15;16.40;79.10
19174;DHT22;9719;49.322;8.536;2023-04-24T14:26:17;16.20;79.20
19174;DHT22;9719;49.322;8.536;2023-04-24T14:31:20;16.00;80.40
19174;DHT22;9719;49.322;8.536;2023-04-24T14:36:22;16.10;79.70
19174;DHT22;9719;49.322;8.536;2023-04-24T14:41:23;16.10;80.20
19174;DHT22;9719;49.322;8.536;2023-04-24T14:46:26;16.10;80.60
19174;DHT22;9719;49.322;8.536;2023-04-24T14:51:31;15.90;80.70
19174;DHT22;9719;49.322;8.536;2023-04-24T14:56:33;15.70;83.50
19174;DHT22;9719;49.322;8.536;2023-04-24T15:01:36;15.30;97.10
19174;DHT22;9719;49.322;8.536;2023-04-24T15:06:38;15.60;98.40
19174;DHT22;9719;49.322;8.536;2023-04-24T15:11:40;15.40;99.30
19174;DHT22;9719;49.322;8.536;2023-04-24T15:16:43;15.40;99.50
19174;DHT22;9719;49.322;8.536;2023-04-24T15:21:45;15.50;98.60
19174;DHT22;9719;49.322;8.536;2023-04-24T15:26:46;15.60;97.00
19174;DHT22;9719;49.322;8.536;2023-04-24T15:31:49;15.40;95.60
19174;DHT22;9719;49.322;8.536;2023-04-24T15:36:51;15.10;94.60
19174;DHT22;9719;49.322;8.536;2023-04-24T15:41:53;14.90;95.30
19174;DHT22;9719;49.322;8.536;2023-04-24T15:46:56;14.80;95.70
19174;DHT22;9719;49.322;8.536;2023-04-24T15:51:57;14.60;96.70
19174;DHT22;9719;49.322;8.536;2023-04-24T15:56:59;14.50;97.30
19174;DHT22;9719;49.322;8.536;2023-04-24T16:02:02;14.40;99.40
19174;DHT22;9719;49.322;8.536;2023-04-24T16:07:05;14.60;99.90
19174;DHT22;9719;49.322;8.536;2023-04-24T16:12:08;15.60;99.90
19174;DHT22;9719;49.322;8.536;2023-04-24T16:17:11;15.60;99.50
19174;DHT22;9719;49.322;8.536;2023-04-24T16:22:13;15.60;99.40
19174;DHT22;9719;49.322;8.536;2023-04-24T16:27:15;16.00;98.60
19174;DHT22;9719;49.322;8.536;2023-04-24T16:32:18;16.40;96.40
19174;DHT22;9719;49.322;8.536;2023-04-24T16:37:20;16.50;95.70
19174;DHT22;9719;49.322;8.536;2023-04-24T16:42:22;16.40;96.10
19174;DHT22;9719;49.322;8.536;2023-04-24T16:47:25;16.50;96.40
19174;DHT22;9719;49.322;8.536;2023-04-24T16:52:26;16.60;96.90
19174;DHT22;9719;49.322;8.536;2023-04-24T16:57:28;16.50;96.70
19174;DHT22;9719;49.322;8.536;2023-04-24T17:02:31;16.30;96.40
19174;DHT22;9719;49.322;8.536;2023-04-24T17:07:33;16.10;96.20
19174;DHT22;9719;49.322;8.536;2023-04-24T17:12:35;15.80;95.50
19174;DHT22;9719;49.322;8.536;2023-04-24T17:17:38;15.30;95.30
19174;DHT22;9719;49.322;8.536;2023-04-24T17:22:41;15.10;95.60
19174;DHT22;9719;49.322;8.536;2023-04-24T17:27:43;14.90;96.60
19174;DHT22;9719;49.322;8.536;2023-04-24T17:32:47;14.60;98.00
19174;DHT22;9719;49.322;8.536;2023-04-24T17:37:48;14.60;99.90
19174;DHT22;9719;49.322;8.536;2023-04-24T17:42:50;14.50;99.90
19174;DHT22;9719;49.322;8.536;2023-04-24T17:47:53;14.40;99.90
19174;DHT22;9719;49.322;8.536;2023-04-24T17:52:56;14.40;99.90
19174;DHT22;9719;49.322;8.536;2023-04-24T17:57:57;14.30;99.90
19174;DHT22;9719;49.322;8.536;2023-04-24T18:03:03;14.20;99.90
19174;DHT22;9719;49.322;8.536;2023-04-24T18:08:05;14.10;99.90
19174;DHT22;9719;49.322;8.536;2023-04-24T18:13:06;13.90;99.90
19174;DHT22;9719;49.322;8.536;2023-04-24T18:18:10;13.80;99.90
19174;DHT22;9719;49.322;8.536;2023-04-24T18:23:12;13.70;99.90
19174;DHT22;9719;49.322;8.536;2023-04-24T18:28:14;13.60;99.90
19174;DHT22;9719;49.322;8.536;2023-04-24T18:33:17;13.60;99.90
19174;DHT22;9719;49.322;8.536;2023-04-24T18:38:18;13.60;99.90
19174;DHT22;9719;49.322;8.536;2023-04-24T18:43:21;13.60;99.90
19174;DHT22;9719;49.322;8.536;2023-04-24T18:48:24;13.60;99.90
19174;DHT22;9719;49.322;8.536;2023-04-24T18:53:28;13.50;99.90
19174;DHT22;9719;49.322;8.536;2023-04-24T18:58:29;13.50;99.90
19174;DHT22;9719;49.322;8.536;2023-04-24T19:03:32;13.40;99.90
19174;DHT22;9719;49.322;8.536;2023-04-24T19:08:34;13.30;99.90
19174;DHT22;9719;49.322;8.536;2023-04-24T19:13:37;13.20;99.90
19174;DHT22;9719;49.322;8.536;2023-04-24T19:18:40;13.00;99.90
19174;DHT22;9719;49.322;8.536;2023-04-24T19:23:42;12.90;99.90
19174;DHT22;9719;49.322;8.536;2023-04-24T19:28:45;12.80;99.90
19174;DHT22;9719;49.322;8.536;2023-04-24T19:33:48;12.70;99.90
19174;DHT22;9719;49.322;8.536;2023-04-24T19:38:50;12.60;99.90
19174;DHT22;9719;49.322;8.536;2023-04-24T19:43:51;12.50;99.90
19174;DHT22;9719;49.322;8.536;2023-04-24T19:48:55;12.50;99.90
19174;DHT22;9719;49.322;8.536;2023-04-24T19:53:56;12.40;99.90
19174;DHT22;9719;49.322;8.536;2023-04-24T19:58:58;12.40;99.90
19174;DHT22;9719;49.322;8.536;2023-04-24T20:04:01;12.40;99.90
19174;DHT22;9719;49.322;8.536;2023-04-24T20:09:06;12.40;99.90
19174;DHT22;9719;49.322;8.536;2023-04-24T20:14:07;12.40;99.90
19174;DHT22;9719;49.322;8.536;2023-04-24T20:19:10;12.40;99.90
19174;DHT22;9719;49.322;8.536;2023-04-24T20:24:12;12.40;99.90
19174;DHT22;9719;49.322;8.536;2023-04-24T20:29:15;12.40;99.90
19174;DHT22;9719;49.322;8.536;2023-04-24T20:34:18;12.40;99.90
19174;DHT22;9719;49.322;8.536;2023-04-24T20:39:20;12.40;99.90
19174;DHT22;9719;49.322;8.536;2023-04-24T20:44:22;12.30;99.90
19174;DHT22;9719;49.322;8.536;2023-04-24T20:49:25;12.30;99.90
19174;DHT22;9719;49.322;8.536;2023-04-24T20:54:27;12.30;99.90
19174;DHT22;9719;49.322;8.536;2023-04-24T20:59:28;12.30;99.90
19174;DHT22;9719;49.322;8.536;2023-04-24T21:04:31;12.30;99.90
19174;DHT22;9719;49.322;8.536;2023-04-24T21:09:36;12.30;99.90
19174;DHT22;9719;49.322;8.536;2023-04-24T21:14:38;12.40;99.90
19174;DHT22;9719;49.322;8.536;2023-04-24T21:19:41;12.40;99.90
19174;DHT22;9719;49.322;8.536;2023-04-24T21:24:43;12.40;99.90
19174;DHT22;9719;49.322;8.536;2023-04-24T21:29:45;12.40;99.90
19174;DHT22;9719;49.322;8.536;2023-04-24T21:34:48;12.40;99.90
19174;DHT22;9719;49.322;8.536;2023-04-24T21:39:49;12.40;99.90
19174;DHT22;9719;49.322;8.536;2023-04-24T21:44:51;12.40;99.90
19174;DHT22;9719;49.322;8.536;2023-04-24T21:49:54;12.40;99.90
19174;DHT22;9719;49.322;8.536;2023-04-24T21:54:56;12.30;99.90
19174;DHT22;9719;49.322;8.536;2023-04-24T21:59:58;12.30;99.90
19174;DHT22;9719;49.322;8.536;2023-04-24T22:05:01;12.20;99.90
19174;DHT22;9719;49.322;8.536;2023-04-24T22:10:04;12.20;99.90
19174;DHT22;9719;49.322;8.536;2023-04-24T22:15:07;12.20;99.90
19174;DHT22;9719;49.322;8.536;2023-04-24T22:20:11;12.20;99.90
19174;DHT22;9719;49.322;8.536;2023-04-24T22:25:13;12.30;99.90
19174;DHT22;9719;49.322;8.536;2023-04-24T22:30:15;12.30;99.90
19174;DHT22;9719;49.322;8.536;2023-04-24T22:35:18;12.30;99.90
19174;DHT22;9719;49.322;8.536;2023-04-24T22:40:19;12.30;99.90
19174;DHT22;9719;49.322;8.536;2023-04-24T22:45:21;12.30;99.90
19174;DHT22;9719;49.322;8.536;2023-04-24T22:50:24;12.40;99.90
19174;DHT22;9719;49.322;8.536;2023-04-24T22:55:26;12.30;99.90
19174;DHT22;9719;49.322;8.536;2023-04-24T23:00:28;12.30;99.90
19174;DHT22;9719;49.322;8.536;2023-04-24T23:05:31;12.30;99.90
19174;DHT22;9719;49.322;8.536;2023-04-24T23:10:33;12.30;99.90
19174;DHT22;9719;49.322;8.536;2023-04-24T23:15:34;12.20;99.90
19174;DHT22;9719;49.322;8.536;2023-04-24T23:20:39;12.10;99.90
19174;DHT22;9719;49.322;8.536;2023-04-24T23:25:41;12.00;99.90
19174;DHT22;9719;49.322;8.536;2023-04-24T23:30:43;11.90;99.90
19174;DHT22;9719;49.322;8.536;2023-04-24T23:35:46;11.80;99.90
19174;DHT22;9719;49.322;8.536;2023-04-24T23:40:47;11.80;99.90
19174;DHT22;9719;49.322;8.536;2023-04-24T23:45:50;11.70;99.90
19174;DHT22;9719;49.322;8.536;2023-04-24T23:50:53;11.70;99.90
19174;DHT22;9719;49.322;8.536;2023-04-24T23:55:55;11.60;99.90
